Time;durP1;ratioP1;P1;durP2;ratioP2;P2;SDS_P1;SDS_P2;PMS_P1;PMS_P2;Temp;Humidity;BMP_temperature;BMP_pressure;BME280_temperature;BME280_humidity;BME280_pressure;Samples;Min_cycle;Max_cycle;Signal;HPM_P1;HPM_P2
2022/12/07 00:01:11;;;;;;;10.48;5.82;;;;;;;12.82;100.00;101541.47;2101173;28;20044;-78
2022/12/07 00:02:33;;;;;;;10.75;6.10;;;;;;;12.78;100.00;101533.47;2109626;28;20054;-78
2022/12/07 00:04:04;;;;;;;8.65;5.53;;;;;;;12.77;100.00;101534.34;2096615;28;20126;-77
2022/12/07 00:05:26;;;;;;;9.93;5.38;;;;;;;12.76;100.00;101531.66;2078104;28;20054;-78
2022/12/07 00:06:54;;;;;;;10.50;5.22;;;;;;;12.75;100.00;101525.47;2086488;28;20045;-78
2022/12/07 00:08:15;;;;;;;10.70;5.65;;;;;;;12.74;100.00;101528.97;2088990;28;20059;-78
2022/12/07 00:09:38;;;;;;;9.98;6.13;;;;;;;12.75;100.00;101533.41;2088124;28;20049;-78
2022/12/07 00:11:02;;;;;;;13.75;6.72;;;;;;;12.74;100.00;101525.41;2085447;28;20048;-78
2022/12/07 00:12:24;;;;;;;9.25;5.55;;;;;;;12.74;100.00;101518.38;2091557;28;20102;-78
2022/12/07 00:13:51;;;;;;;11.10;6.03;;;;;;;12.74;100.00;101526.31;2094835;28;20086;-78
2022/12/07 00:15:14;;;;;;;12.63;7.32;;;;;;;12.72;100.00;101522.75;2090983;28;20048;-78
2022/12/07 00:16:36;;;;;;;15.13;6.82;;;;;;;12.70;100.00;101524.47;2085601;28;20057;-77
2022/12/07 00:17:58;;;;;;;15.20;8.73;;;;;;;12.70;100.00;101527.13;2093667;28;20098;-78
2022/12/07 00:19:20;;;;;;;11.38;7.05;;;;;;;12.69;100.00;101520.03;2092438;28;20040;-78
2022/12/07 00:20:43;;;;;;;12.48;6.82;;;;;;;12.71;100.00;101520.97;2093739;28;20052;-78
2022/12/07 00:22:05;;;;;;;11.93;8.13;;;;;;;12.71;100.00;101520.09;2085406;28;20201;-78
2022/12/07 00:23:27;;;;;;;12.30;7.70;;;;;;;12.72;100.00;101525.41;2090964;28;20085;-78
2022/12/07 00:24:51;;;;;;;10.25;6.78;;;;;;;12.73;100.00;101527.16;2094090;28;20065;-78
2022/12/07 00:26:16;;;;;;;12.20;7.30;;;;;;;12.74;100.00;101523.66;2093778;28;20432;-78
2022/12/07 00:27:37;;;;;;;11.95;7.88;;;;;;;12.75;100.00;101525.47;2085109;28;20146;-78
2022/12/07 00:29:04;;;;;;;11.80;7.25;;;;;;;12.74;100.00;101518.38;2085406;28;20167;-78
2022/12/07 00:30:25;;;;;;;15.13;10.77;;;;;;;12.74;100.00;101514.81;2091828;28;20063;-78
2022/12/07 00:31:48;;;;;;;14.77;10.80;;;;;;;12.73;100.00;101513.06;2093700;28;20048;-78
2022/12/07 00:33:09;;;;;;;15.82;11.45;;;;;;;12.71;100.00;101518.31;2102352;28;20047;-78
2022/12/07 00:34:31;;;;;;;15.60;11.15;;;;;;;12.70;100.00;101520.94;2096329;28;20071;-78
2022/12/07 00:35:55;;;;;;;16.23;10.98;;;;;;;12.70;100.00;101524.47;2093425;28;20049;-78
2022/12/07 00:37:18;;;;;;;13.27;9.57;;;;;;;12.71;100.00;101526.28;2093294;28;20044;-78
2022/12/07 00:38:40;;;;;;;10.82;7.28;;;;;;;12.74;100.00;101528.97;2093582;28;20082;-78
2022/12/07 00:40:02;;;;;;;12.45;7.93;;;;;;;12.77;100.00;101528.13;2093704;28;20052;-78
2022/12/07 00:41:25;;;;;;;12.10;8.15;;;;;;;12.79;100.00;101531.72;2093758;28;20048;-78
2022/12/07 00:42:48;;;;;;;16.55;8.75;;;;;;;12.81;100.00;101537.91;2101899;28;20137;-80
2022/12/07 00:44:12;;;;;;;14.93;9.65;;;;;;;12.82;100.00;101536.16;2096519;28;20398;-80
2022/12/07 00:45:34;;;;;;;18.92;14.30;;;;;;;12.83;100.00;101537.97;2093870;28;20033;-78
2022/12/07 00:46:57;;;;;;;20.92;12.50;;;;;;;12.81;100.00;101544.97;2093485;28;20053;-78
2022/12/07 00:48:18;;;;;;;13.80;7.15;;;;;;;12.81;100.00;101547.63;2093767;28;20052;-78
2022/12/07 00:49:40;;;;;;;11.60;7.82;;;;;;;12.80;100.00;101543.22;2085006;28;20044;-78
2022/12/07 00:51:03;;;;;;;10.38;5.68;;;;;;;12.77;100.00;101544.94;2090081;28;20044;-78
2022/12/07 00:52:25;;;;;;;11.57;6.70;;;;;;;12.79;100.00;101542.31;2088038;28;20044;-78
2022/12/07 00:53:48;;;;;;;13.27;6.97;;;;;;;12.77;100.00;101539.63;2092819;28;20075;-77
2022/12/07 00:55:10;;;;;;;11.40;7.47;;;;;;;12.76;100.00;101535.19;2092125;28;20057;-78
2022/12/07 00:56:32;;;;;;;16.70;9.02;;;;;;;12.74;100.00;101528.97;2091662;28;20099;-78
2022/12/07 00:57:54;;;;;;;13.10;8.18;;;;;;;12.71;100.00;101531.56;2079169;28;20050;-78
2022/12/07 00:59:18;;;;;;;11.35;7.00;;;;;;;12.68;100.00;101528.84;2086731;28;20061;-78
2022/12/07 01:00:41;;;;;;;10.57;6.72;;;;;;;12.64;100.00;101526.13;2079662;28;20049;-78
2022/12/07 01:02:03;;;;;;;11.48;6.10;;;;;;;12.59;100.00;101526.03;2091541;28;20048;-78
2022/12/07 01:03:25;;;;;;;12.70;5.53;;;;;;;12.58;100.00;101523.34;2085838;28;20060;-79
2022/12/07 01:04:47;;;;;;;8.48;5.30;;;;;;;12.56;100.00;101523.31;2092901;28;20094;-78
2022/12/07 01:06:08;;;;;;;11.38;6.63;;;;;;;12.57;100.00;101533.06;2094332;28;20052;-79
2022/12/07 01:07:31;;;;;;;11.82;6.57;;;;;;;12.56;100.00;101539.22;2096651;28;20144;-78
2022/12/07 01:08:53;;;;;;;11.60;7.13;;;;;;;12.56;100.00;101539.22;2089533;28;20513;-78
2022/12/07 01:10:16;;;;;;;9.02;5.72;;;;;;;12.56;100.00;101533.00;2091657;28;20033;-78
2022/12/07 01:11:38;;;;;;;10.27;6.07;;;;;;;12.55;100.00;101536.53;2094135;28;20048;-78
2022/12/07 01:12:59;;;;;;;11.68;5.90;;;;;;;12.54;100.00;101540.94;2085796;28;20037;-78
2022/12/07 01:14:23;;;;;;;8.23;5.70;;;;;;;12.56;100.00;101544.50;2094054;28;20055;-78
2022/12/07 01:15:45;;;;;;;9.90;5.47;;;;;;;12.56;100.00;101549.81;2094822;28;20060;-78
2022/12/07 01:17:07;;;;;;;10.35;5.50;;;;;;;12.59;100.00;101554.28;2094268;28;20102;-79
2022/12/07 01:18:31;;;;;;;7.03;4.93;;;;;;;12.61;100.00;101544.59;2086770;28;20052;-79
2022/12/07 01:19:54;;;;;;;8.88;5.00;;;;;;;12.62;100.00;101541.97;2094583;28;20048;-78
2022/12/07 01:21:16;;;;;;;8.63;5.50;;;;;;;12.63;100.00;101538.47;2089764;28;20564;-79
2022/12/07 01:22:39;;;;;;;8.82;5.55;;;;;;;12.63;100.00;101532.28;2095110;28;20139;-79
2022/12/07 01:24:01;;;;;;;9.90;6.30;;;;;;;12.64;100.00;101542.91;2083660;28;20049;-79
2022/12/07 01:25:23;;;;;;;;;;;;;;;12.60;100.00;101530.44;2093094;28;20151;-79
2022/12/07 01:26:46;;;;;;;10.30;5.53;;;;;;;12.63;100.00;101537.56;2094206;28;19928;-79
2022/12/07 01:28:09;;;;;;;10.27;5.43;;;;;;;12.65;100.00;101531.47;2089215;28;20049;-78
2022/12/07 01:29:31;;;;;;;9.43;6.20;;;;;;;12.69;100.00;101529.75;2088371;28;20130;-79
2022/12/07 01:30:58;;;;;;;9.20;5.93;;;;;;;12.71;100.00;101530.69;2086549;28;20060;-79
2022/12/07 01:32:21;;;;;;;11.25;6.20;;;;;;;12.72;100.00;101530.72;2087413;28;20095;-79
2022/12/07 01:33:44;;;;;;;10.30;6.28;;;;;;;12.75;100.00;101535.16;2086082;28;20040;-80
2022/12/07 01:35:07;;;;;;;10.30;6.47;;;;;;;12.76;100.00;101542.25;2084277;28;20056;-80
2022/12/07 01:36:31;;;;;;;12.68;6.20;;;;;;;12.78;100.00;101533.47;2078113;28;20061;-79
2022/12/07 01:37:54;;;;;;;9.07;6.22;;;;;;;12.79;100.00;101539.66;2089662;28;20036;-79
2022/12/07 01:39:16;;;;;;;15.25;7.32;;;;;;;12.81;100.00;101535.28;2093800;28;20049;-79
2022/12/07 01:40:38;;;;;;;13.00;6.38;;;;;;;12.83;100.00;101543.25;2086658;28;20102;-79
2022/12/07 01:42:00;;;;;;;11.05;7.03;;;;;;;12.83;100.00;101536.19;2094974;28;20060;-80
2022/12/07 01:43:25;;;;;;;12.43;6.85;;;;;;;12.85;100.00;101529.19;2093030;28;20082;-81
2022/12/07 01:45:37;;;;;;;7.53;5.15;;;;;;;12.85;100.00;101531.84;2087597;28;20132;-79
2022/12/07 01:47:01;;;;;;;7.72;5.10;;;;;;;12.81;100.00;101526.44;2089199;28;20044;-80
2022/12/07 01:48:26;;;;;;;10.35;5.50;;;;;;;12.81;100.00;101526.44;2090441;28;20048;-80
2022/12/07 01:49:50;;;;;;;8.43;5.35;;;;;;;12.76;100.00;101527.25;2095370;28;20079;-79
2022/12/07 01:51:14;;;;;;;8.70;5.28;;;;;;;12.75;100.00;101519.25;2086757;28;20044;-80
2022/12/07 01:52:38;;;;;;;12.20;5.63;;;;;;;12.73;100.00;101526.31;2091256;28;20056;-79
2022/12/07 01:54:02;;;;;;;10.98;5.50;;;;;;;12.71;100.00;101517.44;2086158;28;20395;-80
2022/12/07 01:55:25;;;;;;;8.55;5.38;;;;;;;12.69;100.00;101520.03;2091583;28;20051;-78
2022/12/07 01:56:52;;;;;;;8.32;5.32;;;;;;;12.70;100.00;101511.25;2086578;28;20103;-78
2022/12/07 01:58:16;;;;;;;8.10;5.22;;;;;;;12.70;100.00;101516.53;2083524;28;20041;-78
2022/12/07 01:59:38;;;;;;;10.13;6.00;;;;;;;12.68;100.00;101512.06;2083589;28;20967;-78
2022/12/07 02:01:06;;;;;;;9.18;5.85;;;;;;;12.67;100.00;101510.28;2078531;28;20387;-79
2022/12/07 02:02:32;;;;;;;8.85;5.68;;;;;;;12.66;100.00;101506.75;2089410;28;20075;-78
2022/12/07 02:03:55;;;;;;;10.05;6.47;;;;;;;12.65;100.00;101504.97;2086769;28;20048;-79
2022/12/07 02:05:18;;;;;;;11.05;7.38;;;;;;;12.67;100.00;101510.28;2097136;28;20048;-79
2022/12/07 02:06:44;;;;;;;11.02;6.43;;;;;;;12.68;100.00;101501.47;2094308;28;20572;-78
2022/12/07 02:08:05;;;;;;;13.45;5.97;;;;;;;12.67;100.00;101508.50;2100329;28;20053;-78
2022/12/07 02:09:28;;;;;;;9.80;6.45;;;;;;;12.67;100.00;101502.31;2102856;28;20036;-78
2022/12/07 02:10:49;;;;;;;11.48;6.20;;;;;;;12.65;100.00;101502.31;2088469;28;20041;-78
2022/12/07 02:12:12;;;;;;;12.48;6.68;;;;;;;12.64;100.00;101502.28;2094201;28;20123;-78
2022/12/07 02:13:35;;;;;;;8.82;5.70;;;;;;;12.65;100.00;101507.63;2088551;28;20383;-78
2022/12/07 02:14:57;;;;;;;11.05;6.25;;;;;;;12.63;100.00;101497.84;2093540;28;20052;-78
2022/12/07 02:16:40;;;;;;;10.95;6.38;;;;;;;12.60;100.00;101488.06;2102872;28;20126;-78
2022/12/07 02:18:09;;;;;;;10.60;6.53;;;;;;;12.59;100.00;101491.59;2105495;28;20056;-78
2022/12/07 02:20:01;;;;;;;10.80;6.10;;;;;;;12.58;100.00;101494.22;2094506;28;20126;-78
2022/12/07 02:21:35;;;;;;;11.10;5.90;;;;;;;12.57;100.00;101492.44;2095523;28;20094;-78
2022/12/07 02:23:39;;;;;;;8.85;5.55;;;;;;;12.55;100.00;101483.56;2095039;28;20056;-78
2022/12/07 02:25:10;;;;;;;8.90;5.88;;;;;;;12.55;100.00;101481.81;2105567;28;20047;-78
2022/12/07 02:27:10;;;;;;;8.65;5.50;;;;;;;12.56;100.00;101477.41;2103304;28;20044;-78
2022/12/07 02:28:37;;;;;;;8.90;5.78;;;;;;;12.55;100.00;101472.97;2097282;28;20040;-78
2022/12/07 02:30:01;;;;;;;9.73;5.88;;;;;;;12.56;100.00;101474.75;2101722;28;20083;-77
2022/12/07 02:31:28;;;;;;;9.38;5.68;;;;;;;12.55;100.00;101471.22;2101802;28;20612;-77
2022/12/07 02:32:58;;;;;;;9.02;5.90;;;;;;;12.51;100.00;101469.38;2101200;28;20054;-78
2022/12/07 02:34:26;;;;;;;11.45;5.60;;;;;;;12.48;100.00;101479.91;2104597;28;20447;-77
2022/12/07 02:35:56;;;;;;;10.15;5.70;;;;;;;12.48;100.00;101469.31;2095026;28;20044;-78
2022/12/07 02:37:27;;;;;;;9.20;5.70;;;;;;;12.47;100.00;101475.44;2095257;28;20095;-78
2022/12/07 02:38:56;;;;;;;10.52;5.68;;;;;;;12.47;100.00;101467.50;2098262;28;20471;-77
2022/12/07 02:40:24;;;;;;;20.27;11.85;;;;;;;12.48;100.00;101469.31;2095216;28;20101;-78
2022/12/07 02:41:50;;;;;;;20.73;10.13;;;;;;;12.48;100.00;101474.59;2108319;28;20047;-78
2022/12/07 02:43:19;;;;;;;14.02;7.97;;;;;;;12.48;100.00;101468.41;2103968;28;20036;-78
2022/12/07 02:44:42;;;;;;;13.18;8.00;;;;;;;12.48;100.00;101473.69;2101605;28;20055;-77
2022/12/07 02:46:09;;;;;;;9.63;5.88;;;;;;;12.49;100.00;101468.44;2094271;28;20482;-78
2022/12/07 02:47:33;;;;;;;10.45;4.95;;;;;;;12.49;100.00;101460.50;2091790;28;20424;-78
2022/12/07 02:48:59;;;;;;;9.68;6.07;;;;;;;12.49;100.00;101463.16;2092269;28;20056;-77
2022/12/07 02:50:22;;;;;;;8.18;5.40;;;;;;;12.50;100.00;101464.94;2099463;28;20052;-78
2022/12/07 02:51:46;;;;;;;9.98;5.55;;;;;;;12.52;100.00;101460.56;2101715;28;20098;-78
2022/12/07 02:53:33;;;;;;;8.05;5.22;;;;;;;12.55;100.00;101462.38;2101610;28;20048;-79
2022/12/07 02:54:54;;;;;;;10.63;5.57;;;;;;;12.56;100.00;101462.41;2104137;28;20079;-79
2022/12/07 02:56:29;;;;;;;8.55;5.30;;;;;;;12.57;100.00;101472.13;2101254;28;20051;-79
2022/12/07 02:58:15;;;;;;;9.23;5.32;;;;;;;12.58;100.00;101468.63;2096159;28;20555;-80
2022/12/07 02:59:52;;;;;;;11.80;6.00;;;;;;;12.56;100.00;101465.06;2105007;28;20519;-78
2022/12/07 03:01:26;;;;;;;11.85;6.97;;;;;;;12.54;100.00;101458.81;2103137;28;20496;-77
2022/12/07 03:02:55;;;;;;;10.80;6.97;;;;;;;12.53;100.00;101459.72;2103727;28;20048;-77
2022/12/07 03:04:28;;;;;;;12.05;7.00;;;;;;;12.51;100.00;101457.88;2110777;28;20673;-78
2022/12/07 03:06:21;;;;;;;12.35;6.15;;;;;;;12.43;100.00;101455.09;2096551;28;20052;-77
2022/12/07 03:07:49;;;;;;;;;;;;;;;12.32;100.00;101454.00;2072126;28;20092;-77
2022/12/07 03:09:21;;;;;;;11.57;6.90;;;;;;;12.32;100.00;101460.19;2096187;28;19927;-77
2022/12/07 03:10:52;;;;;;;9.52;6.22;;;;;;;12.30;100.00;101453.06;2096510;28;20071;-77
2022/12/07 03:12:18;;;;;;;11.38;6.70;;;;;;;12.30;100.00;101456.59;2100030;28;20130;-78
2022/12/07 03:13:50;;;;;;;12.27;5.95;;;;;;;12.29;100.00;101449.53;2101754;28;20371;-78
2022/12/07 03:15:17;;;;;;;9.52;6.30;;;;;;;12.28;100.00;101454.78;2102567;28;20466;-77
2022/12/07 03:16:46;;;;;;;12.57;7.15;;;;;;;12.26;100.00;101457.41;2101680;28;20059;-78
2022/12/07 03:18:11;;;;;;;10.75;6.18;;;;;;;12.26;100.00;101459.19;2088189;28;20466;-77
2022/12/07 03:19:35;;;;;;;12.77;6.78;;;;;;;12.25;100.00;101457.38;2090186;28;20053;-78
2022/12/07 03:21:00;;;;;;;10.35;6.65;;;;;;;12.24;100.00;101459.13;2094483;28;20072;-78
2022/12/07 03:22:24;;;;;;;12.05;7.00;;;;;;;12.23;100.00;101462.66;2086092;28;20067;-78
2022/12/07 03:23:52;;;;;;;14.93;6.72;;;;;;;12.22;100.00;101459.94;2083726;28;20546;-77
2022/12/07 03:25:16;;;;;;;12.85;6.40;;;;;;;12.19;100.00;101454.63;2094357;28;20048;-77
2022/12/07 03:26:43;;;;;;;11.68;8.30;;;;;;;12.19;100.00;101459.91;2091460;28;20432;-78
2022/12/07 03:28:07;;;;;;;9.90;6.38;;;;;;;12.18;100.00;101459.03;2099770;28;20118;-78
2022/12/07 03:29:34;;;;;;;32.63;29.33;;;;;;;12.17;100.00;101454.59;2088299;28;20045;-78
2022/12/07 03:31:02;;;;;;;11.45;7.78;;;;;;;12.17;100.00;101457.22;2088694;28;20389;-78
2022/12/07 03:32:32;;;;;;;10.57;6.10;;;;;;;12.19;100.00;101457.25;2100506;28;20071;-78
2022/12/07 03:34:01;;;;;;;10.65;6.72;;;;;;;12.16;100.00;101458.09;2103857;28;20035;-79
2022/12/07 03:35:28;;;;;;;10.93;6.43;;;;;;;12.15;100.00;101448.34;2086772;28;20043;-79
2022/12/07 03:36:56;;;;;;;8.55;5.88;;;;;;;12.14;100.00;101445.69;2097149;28;20039;-79
2022/12/07 03:38:23;;;;;;;10.88;5.40;;;;;;;12.12;100.00;101450.06;2102097;28;20449;-79
2022/12/07 03:39:53;;;;;;;9.70;6.10;;;;;;;12.10;100.00;101454.41;2102987;28;20093;-79
2022/12/07 03:41:20;;;;;;;9.95;5.97;;;;;;;12.06;100.00;101450.84;2086885;28;20057;-79
2022/12/07 03:42:42;;;;;;;12.05;6.13;;;;;;;12.03;100.00;101449.84;2093253;28;20052;-79
2022/12/07 03:44:05;;;;;;;;;;;;;;;11.94;100.00;101451.47;2102844;28;20036;-79
2022/12/07 03:45:28;;;;;;;;;;;;;;;11.86;100.00;101453.06;2101483;28;19998;-78
2022/12/07 03:47:01;;;;;;;10.38;5.82;;;;;;;11.86;100.00;101453.06;2095350;28;19960;-76
2022/12/07 03:48:30;;;;;;;9.82;6.68;;;;;;;11.85;100.00;101453.03;2089090;28;20086;-77
2022/12/07 03:49:58;;;;;;;11.00;7.10;;;;;;;11.84;100.00;101448.59;2100174;28;20129;-77
2022/12/07 03:51:26;;;;;;;17.95;10.02;;;;;;;11.84;100.00;101452.13;2104818;28;20177;-78
2022/12/07 03:52:55;;;;;;;18.15;9.73;;;;;;;11.84;100.00;101444.19;2100576;28;20056;-77
2022/12/07 03:54:22;;;;;;;15.23;9.38;;;;;;;11.82;100.00;101447.66;2084252;28;20403;-78
2022/12/07 03:55:48;;;;;;;10.80;7.90;;;;;;;11.77;100.00;101442.28;2089017;28;20044;-77
2022/12/07 03:57:12;;;;;;;15.63;8.73;;;;;;;11.75;100.00;101443.97;2091862;28;20048;-78
2022/12/07 03:58:36;;;;;;;23.10;13.10;;;;;;;11.74;100.00;101434.28;2094281;28;20051;-77
2022/12/07 04:00:00;;;;;;;17.17;11.27;;;;;;;11.71;100.00;101431.53;2091482;28;20052;-78
2022/12/07 04:01:23;;;;;;;14.30;8.43;;;;;;;11.73;100.00;101437.75;2099735;28;20040;-77
2022/12/07 04:02:45;;;;;;;14.23;7.65;;;;;;;11.74;100.00;101436.03;2094068;28;20048;-77
2022/12/07 04:04:09;;;;;;;12.65;7.88;;;;;;;11.76;100.00;101442.22;2093947;28;20063;-79
2022/12/07 04:05:30;;;;;;;10.90;7.05;;;;;;;11.76;100.00;101444.88;2085222;28;20053;-80
2022/12/07 04:06:53;;;;;;;16.20;7.40;;;;;;;11.77;100.00;101442.28;2091187;28;20045;-80
2022/12/07 04:08:15;;;;;;;11.68;6.65;;;;;;;11.79;100.00;101444.97;2085773;28;20090;-79
2022/12/07 04:09:36;;;;;;;9.70;6.35;;;;;;;11.82;100.00;101445.00;2085239;28;20049;-79
2022/12/07 04:10:59;;;;;;;11.68;6.95;;;;;;;11.83;100.00;101446.78;2090919;28;20048;-80
2022/12/07 04:12:20;;;;;;;10.10;6.30;;;;;;;11.86;100.00;101449.53;2093992;28;20056;-80
2022/12/07 04:15:23;;;;;;;11.02;8.30;;;;;;;11.82;100.00;101443.25;2097631;28;20143;-78
2022/12/07 04:16:44;;;;;;;28.10;20.80;;;;;;;11.78;100.00;101437.88;2100994;28;20520;-79
2022/12/07 04:18:07;;;;;;;25.38;14.80;;;;;;;11.73;100.00;101442.16;2102371;28;20048;-80
2022/12/07 04:19:32;;;;;;;18.10;12.70;;;;;;;11.73;100.00;101435.09;2102300;28;20161;-79
2022/12/07 04:20:55;;;;;;;18.10;13.13;;;;;;;11.75;100.00;101435.19;2093927;28;20060;-79
2022/12/07 04:22:17;;;;;;;19.27;12.95;;;;;;;11.78;100.00;101433.47;2102169;28;20040;-79
2022/12/07 04:23:38;;;;;;;14.63;10.50;;;;;;;11.84;100.00;101435.34;2096436;28;20143;-79
2022/12/07 04:25:01;;;;;;;15.38;9.77;;;;;;;11.87;100.00;101433.69;2085700;28;20041;-79
2022/12/07 04:26:23;;;;;;;16.25;10.50;;;;;;;11.88;100.00;101430.16;2093799;28;20389;-80
2022/12/07 04:27:46;;;;;;;21.17;13.30;;;;;;;11.89;100.00;101433.69;2093833;28;20061;-79
2022/12/07 04:29:08;;;;;;;23.90;15.63;;;;;;;11.91;100.00;101430.22;2100776;28;20063;-79
2022/12/07 04:30:31;;;;;;;19.42;12.48;;;;;;;11.93;100.00;101432.91;2092531;28;20607;-79
2022/12/07 04:31:52;;;;;;;14.88;9.13;;;;;;;11.92;100.00;101432.03;2097922;28;20056;-80
2022/12/07 04:33:15;;;;;;;13.82;9.57;;;;;;;11.93;100.00;101427.63;2101871;28;20040;-79
2022/12/07 04:34:38;;;;;;;13.65;9.05;;;;;;;11.95;100.00;101429.44;2090094;28;20051;-79
2022/12/07 04:36:01;;;;;;;13.88;9.30;;;;;;;11.95;100.00;101432.06;2091594;28;20728;-80
2022/12/07 04:37:24;;;;;;;15.05;9.75;;;;;;;11.94;100.00;101440.91;2086021;28;20053;-80
2022/12/07 04:38:45;;;;;;;12.23;8.90;;;;;;;11.93;100.00;101444.41;2092609;28;20587;-79
2022/12/07 04:40:10;;;;;;;16.05;10.57;;;;;;;11.91;100.00;101440.81;2092580;28;20632;-80
2022/12/07 04:41:32;;;;;;;33.17;20.17;;;;;;;11.93;100.00;101443.50;2101342;28;20085;-80
2022/12/07 04:42:54;;;;;;;;;;;;;;;11.88;100.00;101443.38;2103242;28;20062;-79
2022/12/07 04:44:18;;;;;;;15.48;10.77;;;;;;;11.89;100.00;101449.56;2102675;28;20414;-79
2022/12/07 04:45:40;;;;;;;14.50;11.13;;;;;;;11.91;100.00;101438.16;2103900;28;20055;-79
2022/12/07 04:47:02;;;;;;;16.88;11.45;;;;;;;11.93;100.00;101440.84;2094037;28;20056;-79
2022/12/07 04:48:24;;;;;;;19.13;12.13;;;;;;;11.94;100.00;101446.19;2095089;28;20044;-80
2022/12/07 04:49:48;;;;;;;21.52;14.93;;;;;;;11.94;100.00;101443.53;2105301;28;20056;-79
2022/12/07 04:51:11;;;;;;;23.02;16.98;;;;;;;11.93;100.00;101446.16;2095240;28;20474;-80
2022/12/07 04:52:33;;;;;;;22.10;15.65;;;;;;;11.93;100.00;101452.34;2101131;28;20089;-80
2022/12/07 04:53:57;;;;;;;18.25;14.27;;;;;;;11.95;100.00;101436.47;2093650;28;20041;-80
2022/12/07 04:55:19;;;;;;;17.55;12.18;;;;;;;11.95;100.00;101437.38;2099883;28;20109;-79
2022/12/07 04:56:41;;;;;;;15.55;9.25;;;;;;;11.97;100.00;101440.94;2093639;28;20041;-80
2022/12/07 04:58:03;;;;;;;15.68;7.97;;;;;;;11.98;100.00;101442.72;2100841;28;20040;-80
2022/12/07 04:59:24;;;;;;;15.13;6.72;;;;;;;12.01;100.00;101443.66;2102243;28;20052;-80
2022/12/07 05:00:47;;;;;;;13.10;6.97;;;;;;;12.01;100.00;101441.91;2102684;28;20213;-79
2022/12/07 05:02:09;;;;;;;15.25;10.90;;;;;;;12.04;100.00;101441.06;2096135;28;21474;-80
2022/12/07 05:03:31;;;;;;;10.68;6.35;;;;;;;12.04;100.00;101446.34;2092109;28;20056;-80
2022/12/07 05:04:55;;;;;;;11.10;7.20;;;;;;;12.04;100.00;101441.06;2092294;28;20044;-80
2022/12/07 05:06:18;;;;;;;12.40;6.90;;;;;;;12.04;100.00;101446.34;2101312;28;20047;-80
2022/12/07 05:07:40;;;;;;;13.52;7.63;;;;;;;12.04;100.00;101449.00;2094533;28;20044;-79
2022/12/07 05:09:02;;;;;;;13.77;6.68;;;;;;;12.04;100.00;101451.66;2100774;28;20131;-80
2022/12/07 05:10:25;;;;;;;8.70;5.93;;;;;;;12.02;100.00;101448.97;2096611;28;20056;-80
2022/12/07 05:11:47;;;;;;;10.25;5.65;;;;;;;12.03;100.00;101452.50;2094855;28;20074;-80
2022/12/07 05:13:09;;;;;;;13.95;6.00;;;;;;;12.04;100.00;101452.53;2095334;28;20052;-79
2022/12/07 05:14:32;;;;;;;11.55;5.95;;;;;;;12.07;100.00;101451.72;2091325;28;20056;-80
2022/12/07 05:15:54;;;;;;;10.15;5.68;;;;;;;12.09;100.00;101452.63;2100266;28;20048;-80
2022/12/07 05:17:16;;;;;;;12.68;5.80;;;;;;;12.12;100.00;101456.25;2111638;28;20036;-79
2022/12/07 05:18:38;;;;;;;11.38;5.93;;;;;;;12.16;100.00;101455.44;2097587;28;20543;-80
2022/12/07 05:20:02;;;;;;;12.00;6.30;;;;;;;12.17;100.00;101451.03;2091659;28;20040;-79
2022/12/07 05:21:23;;;;;;;9.02;5.20;;;;;;;12.19;100.00;101449.31;2092079;28;20055;-80
2022/12/07 05:22:45;;;;;;;11.13;5.68;;;;;;;12.22;100.00;101459.94;2099610;28;20338;-79
2022/12/07 05:24:11;;;;;;;10.68;5.75;;;;;;;12.24;100.00;101464.44;2102466;28;20048;-79
2022/12/07 05:25:33;;;;;;;9.88;5.70;;;;;;;12.28;100.00;101460.06;2102472;28;20044;-80
2022/12/07 05:26:54;;;;;;;12.52;6.00;;;;;;;12.29;100.00;101459.22;2110879;28;20051;-80
2022/12/07 05:28:17;;;;;;;12.48;6.63;;;;;;;12.30;100.00;101466.31;2105494;28;20132;-80
2022/12/07 05:29:38;;;;;;;10.07;5.85;;;;;;;12.31;100.00;101463.69;2094216;28;20548;-80
2022/12/07 05:31:00;;;;;;;13.65;6.50;;;;;;;12.31;100.00;101466.34;2094893;28;20562;-80
2022/12/07 05:32:23;;;;;;;9.73;5.75;;;;;;;12.32;100.00;101464.59;2095163;28;20660;-80
2022/12/07 05:33:45;;;;;;;17.58;7.68;;;;;;;12.32;100.00;101465.47;2086886;28;20111;-79
2022/12/07 05:35:10;;;;;;;12.10;7.63;;;;;;;12.34;100.00;101460.19;2097872;28;20078;-80
2022/12/07 05:36:33;;;;;;;14.82;7.82;;;;;;;12.32;100.00;101454.00;2092669;28;20036;-79
2022/12/07 05:37:54;;;;;;;13.05;6.85;;;;;;;12.31;100.00;101458.41;2084006;28;20434;-79
2022/12/07 05:39:16;;;;;;;13.60;8.85;;;;;;;12.28;100.00;101460.97;2107495;28;20090;-80
2022/12/07 05:40:39;;;;;;;20.25;9.80;;;;;;;12.28;100.00;101452.13;2102401;28;20052;-80
2022/12/07 05:42:12;;;;;;;16.98;9.98;;;;;;;12.27;100.00;101456.53;2100643;28;20038;-80
2022/12/07 05:43:35;;;;;;;12.43;8.55;;;;;;;12.26;100.00;101449.47;2089667;28;20045;-80
2022/12/07 05:44:58;;;;;;;18.77;11.00;;;;;;;12.32;100.00;101448.72;2091084;28;20044;-80
2022/12/07 05:46:20;;;;;;;17.67;11.13;;;;;;;12.39;100.00;101447.97;2091964;28;20080;-80
2022/12/07 05:47:43;;;;;;;34.53;18.40;;;;;;;12.44;100.00;101454.22;2090748;28;20076;-80
2022/12/07 05:49:04;;;;;;;23.50;12.75;;;;;;;12.48;100.00;101458.72;2099753;28;20135;-80
2022/12/07 05:50:28;;;;;;;17.83;9.65;;;;;;;12.53;100.00;101459.72;2100254;28;20048;-81
2022/12/07 05:51:56;;;;;;;13.13;7.65;;;;;;;12.57;100.00;101460.66;2089230;28;20694;-80
2022/12/07 05:53:19;;;;;;;13.32;8.25;;;;;;;12.59;100.00;101459.81;2086754;28;20495;-81
2022/12/07 05:54:41;;;;;;;18.27;9.93;;;;;;;12.63;100.00;101466.06;2083956;28;20540;-80
2022/12/07 05:56:03;;;;;;;19.08;13.10;;;;;;;12.67;100.00;101462.59;2094326;28;20052;-80
2022/12/07 05:57:26;;;;;;;28.05;18.30;;;;;;;12.70;100.00;101463.56;2092362;28;20044;-79
2022/12/07 06:00:26;;;;;;;21.52;13.18;;;;;;;12.77;100.00;101456.59;2097031;28;20052;-78
2022/12/07 06:01:48;;;;;;;20.13;10.70;;;;;;;12.82;100.00;101464.63;2103146;28;20600;-78
2022/12/07 06:03:10;;;;;;;16.80;10.18;;;;;;;12.87;100.00;101457.66;2103284;28;20093;-79
2022/12/07 06:04:35;;;;;;;15.27;8.63;;;;;;;12.91;100.00;101462.16;2102939;28;20072;-79
2022/12/07 06:05:59;;;;;;;13.82;7.15;;;;;;;12.93;100.00;101465.72;2103047;28;20052;-79
2022/12/07 06:07:21;;;;;;;13.68;6.57;;;;;;;12.94;100.00;101468.38;2103177;28;20274;-79
2022/12/07 06:08:42;;;;;;;11.15;6.43;;;;;;;13.00;100.00;101465.84;2094688;28;20056;-79
2022/12/07 06:10:06;;;;;;;13.50;5.93;;;;;;;13.11;100.00;101460.72;2086356;28;20045;-79
2022/12/07 06:13:06;;;;;;;10.48;6.15;;;;;;;13.44;100.00;101463.06;2096845;28;20033;-79
2022/12/07 06:14:29;;;;;;;13.05;6.25;;;;;;;13.59;100.00;101465.91;2099596;28;20595;-79
2022/12/07 06:15:51;;;;;;;13.23;10.02;;;;;;;13.77;100.00;101475.91;2102940;28;20051;-79
2022/12/07 06:17:15;;;;;;;15.20;6.93;;;;;;;13.91;100.00;101467.25;2089073;28;20052;-79
2022/12/07 06:18:36;;;;;;;19.55;17.33;;;;;;;14.06;100.00;101471.88;2084681;28;20051;-79
2022/12/07 06:19:59;;;;;;;21.55;13.93;;;;;;;14.21;100.00;101477.38;2093947;28;20866;-79
2022/12/07 06:21:22;;;;;;;31.75;11.98;;;;;;;14.36;100.00;101468.72;2102190;28;20093;-79
2022/12/07 06:22:44;;;;;;;23.90;11.18;;;;;;;14.50;100.00;101474.22;2103089;28;20051;-79
2022/12/07 06:24:06;;;;;;;33.38;11.02;;;;;;;14.61;100.00;101473.47;2111562;28;20051;-79
2022/12/07 06:25:29;;;;;;;35.08;11.18;;;;;;;14.73;100.00;101467.38;2105292;28;20865;-80
2022/12/07 06:26:51;;;;;;;31.38;12.90;;;;;;;14.86;100.00;101469.25;2086097;28;20041;-79
2022/12/07 06:28:13;;;;;;;17.75;12.25;;;;;;;14.97;100.00;101474.66;2098009;28;20052;-78
2022/12/07 06:29:36;;;;;;;38.55;34.85;;;;;;;15.06;100.00;101473.00;2102440;28;20101;-78
2022/12/07 06:30:59;;;;;;;19.13;14.43;;;;;;;15.16;100.00;101472.19;2088924;28;20395;-79